createdAt,value
2022-08-16T00:01:24.600Z,36.63
2022-08-16T00:03:53.273Z,36.95
2022-08-16T00:06:21.903Z,37.00
2022-08-16T00:08:49.731Z,36.19
2022-08-16T00:11:17.333Z,35.27
2022-08-16T00:13:54.311Z,35.27
2022-08-16T00:17:00.906Z,35.99
2022-08-16T00:19:16.349Z,36.86
2022-08-16T00:21:44.194Z,37.43
2022-08-16T00:24:12.977Z,37.86
2022-08-16T00:26:45.200Z,38.29
2022-08-16T00:29:16.868Z,38.23
2022-08-16T00:31:59.597Z,37.90
2022-08-16T00:34:41.232Z,38.76
2022-08-16T00:37:11.971Z,37.64
2022-08-16T00:39:45.042Z,37.79
2022-08-16T00:42:13.922Z,36.64
2022-08-16T00:44:45.963Z,36.95
2022-08-16T00:47:17.661Z,36.93
2022-08-16T00:49:56.694Z,36.64
2022-08-16T00:52:30.116Z,37.47
2022-08-16T00:54:59.647Z,38.43
2022-08-16T00:57:58.206Z,38.13
2022-08-16T01:00:19.732Z,37.24
2022-08-16T01:02:48.844Z,37.08
2022-08-16T01:05:16.198Z,37.08
2022-08-16T01:07:52.209Z,36.47
2022-08-16T01:10:31.230Z,38.63
2022-08-16T01:13:01.624Z,39.00
2022-08-16T01:15:31.933Z,39.94
2022-08-16T01:18:00.087Z,39.87
2022-08-16T01:20:30.178Z,40.44
2022-08-16T01:23:23.023Z,39.64
2022-08-16T01:26:00.009Z,37.21
2022-08-16T01:28:45.611Z,37.55
2022-08-16T01:31:13.569Z,38.24
2022-08-16T01:33:40.597Z,38.44
2022-08-16T01:36:12.990Z,38.11
2022-08-16T01:38:46.872Z,38.58
2022-08-16T01:41:23.712Z,39.30
2022-08-16T01:43:53.875Z,40.53
2022-08-16T01:46:40.242Z,40.43
2022-08-16T01:49:18.807Z,40.68
2022-08-16T01:51:48.531Z,40.75
2022-08-16T01:54:16.420Z,40.50
2022-08-16T01:56:57.634Z,41.90
2022-08-16T01:59:25.398Z,40.87
2022-08-16T02:02:00.084Z,43.12
2022-08-16T02:04:48.333Z,42.24
2022-08-16T02:07:18.520Z,41.77
2022-08-16T02:09:57.385Z,41.94
2022-08-16T02:12:50.072Z,40.39
2022-08-16T02:15:16.485Z,39.67
2022-08-16T02:17:43.598Z,40.48
2022-08-16T02:20:12.267Z,41.29
2022-08-16T02:22:39.753Z,39.85
2022-08-16T02:25:14.894Z,39.18
2022-08-16T02:27:43.972Z,38.53
2022-08-16T02:30:37.904Z,39.58
2022-08-16T02:33:04.443Z,39.14
2022-08-16T02:35:32.665Z,38.52
2022-08-16T02:38:01.591Z,39.68
2022-08-16T02:40:36.152Z,39.04
2022-08-16T02:43:04.806Z,39.67
2022-08-16T02:45:32.110Z,40.01
2022-08-16T02:48:30.092Z,40.11
2022-08-16T02:50:54.597Z,40.21
2022-08-16T02:53:35.054Z,42.02
2022-08-16T02:56:02.464Z,41.13
2022-08-16T02:58:29.466Z,40.84
2022-08-16T03:00:58.298Z,41.00
2022-08-16T03:03:26.839Z,41.75
2022-08-16T03:06:39.604Z,42.57
2022-08-16T03:09:02.011Z,43.18
2022-08-16T03:11:35.367Z,43.33
2022-08-16T03:14:07.513Z,43.86
2022-08-16T03:16:38.975Z,45.21
2022-08-16T03:19:10.042Z,44.03
2022-08-16T03:21:38.735Z,44.42
2022-08-16T03:24:28.303Z,46.92
2022-08-16T03:26:57.744Z,47.02
2022-08-16T03:29:30.000Z,45.42
2022-08-16T03:31:59.461Z,46.35
2022-08-16T03:34:27.771Z,46.31
2022-08-16T03:36:55.393Z,44.57
2022-08-16T03:39:23.149Z,44.11
2022-08-16T03:41:59.123Z,43.32
2022-08-16T03:44:44.973Z,44.12
2022-08-16T03:47:18.965Z,44.43
2022-08-16T03:49:51.590Z,44.37
2022-08-16T03:52:23.527Z,45.79
2022-08-16T03:54:53.299Z,42.87
2022-08-16T03:57:24.331Z,41.00
2022-08-16T03:59:59.471Z,42.08
2022-08-16T04:02:31.698Z,42.41
2022-08-16T04:04:59.090Z,42.66
2022-08-16T04:07:26.215Z,43.48
2022-08-16T04:09:53.131Z,43.10
2022-08-16T04:12:54.347Z,42.07
2022-08-16T04:15:08.758Z,41.69
2022-08-16T04:17:37.195Z,41.87
2022-08-16T04:20:29.432Z,43.13
2022-08-16T04:22:56.255Z,41.67
2022-08-16T04:25:23.662Z,40.76
2022-08-16T04:27:54.258Z,40.14
2022-08-16T04:30:34.986Z,39.44
2022-08-16T04:33:04.572Z,38.59
2022-08-16T04:35:34.162Z,38.62
2022-08-16T04:38:10.954Z,37.42
2022-08-16T04:40:48.108Z,38.21
2022-08-16T04:43:17.387Z,38.27
2022-08-16T04:45:45.832Z,38.62
2022-08-16T04:48:28.161Z,40.75
2022-08-16T04:51:00.237Z,42.49
2022-08-16T04:53:28.869Z,41.11
2022-08-16T04:55:56.037Z,40.51
2022-08-16T04:58:43.854Z,41.28
2022-08-16T05:01:09.917Z,40.98
2022-08-16T05:03:41.960Z,42.18
2022-08-16T05:06:42.334Z,41.82
2022-08-16T05:09:12.562Z,41.02
2022-08-16T05:11:39.519Z,40.79
2022-08-16T05:14:07.323Z,41.08
2022-08-16T05:16:34.447Z,40.04
2022-08-16T05:19:11.623Z,39.78
2022-08-16T05:21:40.334Z,39.37
2022-08-16T05:24:09.055Z,39.57
2022-08-16T05:26:43.138Z,37.30
2022-08-16T05:29:15.183Z,38.32
2022-08-16T05:31:47.913Z,37.40
2022-08-16T05:34:19.495Z,36.13
2022-08-16T05:36:47.535Z,37.80
2022-08-16T05:39:18.620Z,33.91
2022-08-16T05:41:47.582Z,34.92
2022-08-16T05:44:22.558Z,34.62
2022-08-16T05:46:53.281Z,36.89
2022-08-16T05:49:22.634Z,35.54
2022-08-16T05:51:50.474Z,38.38
2022-08-16T05:54:24.690Z,38.50
2022-08-16T05:56:54.067Z,39.57
2022-08-16T05:59:23.199Z,40.49
2022-08-16T06:01:52.210Z,40.38
2022-08-16T06:04:35.108Z,41.15
2022-08-16T06:07:08.256Z,41.92
2022-08-16T06:09:43.817Z,40.58
2022-08-16T06:12:27.120Z,39.27
2022-08-16T06:14:59.378Z,39.79
2022-08-16T06:17:42.403Z,38.89
2022-08-16T06:20:18.577Z,37.83
2022-08-16T06:22:58.708Z,38.17
2022-08-16T06:25:36.666Z,37.15
2022-08-16T06:28:08.771Z,35.81
2022-08-16T06:30:44.050Z,36.94
2022-08-16T06:33:22.466Z,35.69
2022-08-16T06:35:54.671Z,34.25
2022-08-16T06:38:32.866Z,34.84
2022-08-16T06:41:04.218Z,34.58
2022-08-16T06:43:32.407Z,35.73
2022-08-16T06:46:00.263Z,36.14
2022-08-16T06:48:32.674Z,38.02
2022-08-16T06:51:02.515Z,38.41
2022-08-16T06:53:29.803Z,38.02
2022-08-16T06:55:59.785Z,38.03
2022-08-16T06:58:31.401Z,37.09
2022-08-16T07:01:01.897Z,37.60
2022-08-16T07:03:32.591Z,37.65
2022-08-16T07:06:21.881Z,36.67
2022-08-16T07:08:54.203Z,36.55
2022-08-16T07:11:48.051Z,36.16
2022-08-16T07:14:25.572Z,38.16
2022-08-16T07:16:55.640Z,36.21
2022-08-16T07:19:33.639Z,36.85
2022-08-16T07:22:37.274Z,36.66
2022-08-16T07:24:58.947Z,36.36
2022-08-16T07:27:26.325Z,35.93
2022-08-16T07:29:55.595Z,35.16
2022-08-16T07:32:29.375Z,34.92
2022-08-16T07:34:56.947Z,34.07
2022-08-16T07:37:25.090Z,35.68
2022-08-16T07:39:52.734Z,35.19
2022-08-16T07:42:34.656Z,34.55
2022-08-16T07:45:03.463Z,35.92
2022-08-16T07:47:35.621Z,35.77
2022-08-16T07:50:08.052Z,35.94
2022-08-16T07:52:38.967Z,37.21
2022-08-16T07:55:08.473Z,35.08
2022-08-16T07:57:44.346Z,34.50
2022-08-16T08:00:20.371Z,34.00
2022-08-16T08:02:52.701Z,32.96
2022-08-16T08:05:29.710Z,33.02
2022-08-16T08:08:11.901Z,32.87
2022-08-16T08:10:51.575Z,30.33
2022-08-16T08:13:18.613Z,30.74
2022-08-16T08:15:52.662Z,31.39
2022-08-16T08:18:29.181Z,30.89
2022-08-16T08:20:59.474Z,33.14
2022-08-16T08:23:27.808Z,30.73
2022-08-16T08:25:55.907Z,30.35
2022-08-16T08:28:23.267Z,29.57
2022-08-16T08:31:00.931Z,28.66
2022-08-16T08:33:31.736Z,28.34
2022-08-16T08:36:02.428Z,26.88
2022-08-16T08:38:43.690Z,26.03
2022-08-16T08:41:18.378Z,27.17
2022-08-16T08:43:50.609Z,29.86
2022-08-16T08:46:21.642Z,28.87
2022-08-16T08:49:01.970Z,27.20
2022-08-16T08:51:32.064Z,25.23
2022-08-16T08:54:06.906Z,25.90
2022-08-16T08:56:45.350Z,27.57
2022-08-16T08:59:19.916Z,26.42
2022-08-16T09:01:56.917Z,25.33
2022-08-16T09:04:26.921Z,25.16
2022-08-16T09:06:54.579Z,24.94
2022-08-16T09:09:23.179Z,24.23
2022-08-16T09:11:53.740Z,22.34
2022-08-16T09:14:32.402Z,24.00
2022-08-16T09:17:03.541Z,22.94
2022-08-16T09:19:40.957Z,21.54
2022-08-16T09:22:20.001Z,22.33
2022-08-16T09:24:52.526Z,22.97
2022-08-16T09:27:23.490Z,22.24
2022-08-16T09:30:00.139Z,22.00
2022-08-16T09:32:32.113Z,20.65
2022-08-16T09:35:00.278Z,20.92
2022-08-16T09:37:36.894Z,22.48
2022-08-16T09:40:32.492Z,22.38
2022-08-16T09:42:59.343Z,22.78
2022-08-16T09:45:29.144Z,24.55
2022-08-16T09:47:58.408Z,23.07
2022-08-16T09:50:36.755Z,21.90
2022-08-16T09:53:15.377Z,20.37
2022-08-16T09:55:57.709Z,22.19
2022-08-16T09:58:37.794Z,21.56
2022-08-16T10:01:11.192Z,25.75
2022-08-16T10:04:02.014Z,25.08
2022-08-16T10:06:33.201Z,24.61
2022-08-16T10:09:04.976Z,23.36
2022-08-16T10:11:56.005Z,23.50
2022-08-16T10:14:40.860Z,23.71
2022-08-16T10:17:13.735Z,23.31
2022-08-16T10:19:43.342Z,24.34
2022-08-16T10:22:12.774Z,24.34
2022-08-16T10:24:40.924Z,23.04
2022-08-16T10:27:29.723Z,22.52
2022-08-16T10:30:25.981Z,21.25
2022-08-16T10:32:55.673Z,22.57
2022-08-16T10:35:23.106Z,22.07
2022-08-16T10:37:52.430Z,22.16
2022-08-16T10:40:29.119Z,22.82
2022-08-16T10:43:00.271Z,23.38
2022-08-16T10:45:36.958Z,23.38
2022-08-16T10:48:27.277Z,23.85
2022-08-16T10:50:59.446Z,22.59
2022-08-16T10:53:32.967Z,22.48
2022-08-16T10:56:44.224Z,22.66
2022-08-16T10:58:53.275Z,24.07
2022-08-16T11:01:43.512Z,22.58
2022-08-16T11:05:04.652Z,21.11
2022-08-16T11:09:43.148Z,19.58
2022-08-16T11:12:13.944Z,22.50
2022-08-16T11:15:11.300Z,22.18
2022-08-16T11:17:32.611Z,20.46
2022-08-16T11:20:36.784Z,21.96
2022-08-16T11:22:48.734Z,21.71
2022-08-16T11:28:09.696Z,21.79
2022-08-16T11:30:39.917Z,23.23
2022-08-16T11:33:09.247Z,22.14
2022-08-16T11:36:22.542Z,21.34
2022-08-16T11:38:51.137Z,21.30
2022-08-16T11:41:13.940Z,20.81
2022-08-16T11:43:45.150Z,20.89
2022-08-16T11:46:45.012Z,20.64
2022-08-16T11:49:01.278Z,20.36
2022-08-16T11:51:28.737Z,20.39
2022-08-16T11:53:55.988Z,21.47
2022-08-16T11:56:39.442Z,20.80
2022-08-16T11:59:10.574Z,21.09
2022-08-16T12:01:44.418Z,20.65
2022-08-16T12:04:25.988Z,20.35
2022-08-16T12:06:53.756Z,21.89
2022-08-16T12:09:22.226Z,21.98
2022-08-16T12:11:52.485Z,21.54
2022-08-16T12:14:23.079Z,21.71
2022-08-16T12:16:55.713Z,21.76
2022-08-16T12:19:35.166Z,21.19
2022-08-16T12:22:05.537Z,21.45
2022-08-16T12:24:32.900Z,23.06
2022-08-16T12:27:00.324Z,23.31
2022-08-16T12:29:29.465Z,22.64
2022-08-16T12:31:59.106Z,22.99
2022-08-16T12:34:29.689Z,22.75
2022-08-16T12:36:57.206Z,23.52
2022-08-16T12:39:28.878Z,23.44
2022-08-16T12:41:56.741Z,23.53
2022-08-16T12:44:26.181Z,22.87
2022-08-16T12:47:12.164Z,23.10
2022-08-16T12:49:42.457Z,22.86
2022-08-16T12:52:09.759Z,26.62
2022-08-16T12:54:57.872Z,28.84
2022-08-16T12:57:25.760Z,28.64
2022-08-16T13:00:07.950Z,27.47
2022-08-16T13:02:36.562Z,33.72
2022-08-16T13:05:07.013Z,39.45
2022-08-16T13:07:37.382Z,41.98
2022-08-16T13:10:21.147Z,41.92
2022-08-16T13:12:58.566Z,41.60
2022-08-16T13:15:28.370Z,44.06
2022-08-16T13:17:56.023Z,44.66
2022-08-16T13:20:26.630Z,42.54
2022-08-16T13:22:58.622Z,40.65
2022-08-16T13:25:26.752Z,40.46
2022-08-16T13:28:03.126Z,41.64
2022-08-16T13:30:37.584Z,45.85
2022-08-16T13:33:11.424Z,46.62
2022-08-16T13:35:45.449Z,45.28
2022-08-16T13:38:24.413Z,43.32
2022-08-16T13:40:56.086Z,43.96
2022-08-16T13:43:27.157Z,45.30
2022-08-16T13:45:56.513Z,45.68
2022-08-16T13:48:25.947Z,47.89
2022-08-16T13:50:55.146Z,45.81
2022-08-16T13:53:24.838Z,45.08
2022-08-16T13:55:58.873Z,45.81
2022-08-16T13:58:35.548Z,46.81
2022-08-16T14:01:10.027Z,46.51
2022-08-16T14:03:38.879Z,44.42
2022-08-16T14:06:07.984Z,43.79
2022-08-16T14:08:42.118Z,47.66
2022-08-16T14:11:14.548Z,49.96
2022-08-16T14:13:43.140Z,43.25
2022-08-16T14:16:12.461Z,40.72
2022-08-16T14:18:45.807Z,40.54
2022-08-16T14:21:14.023Z,39.98
2022-08-16T14:23:41.041Z,39.55
2022-08-16T14:26:08.865Z,39.06
2022-08-16T14:28:35.823Z,38.75
2022-08-16T14:31:03.198Z,43.13
2022-08-16T14:33:32.026Z,42.73
2022-08-16T14:36:00.025Z,40.56
2022-08-16T14:38:29.717Z,36.19
2022-08-16T14:41:06.985Z,35.41
2022-08-16T14:43:37.795Z,35.31
2022-08-16T14:46:07.553Z,33.93
2022-08-16T14:48:34.899Z,32.46
2022-08-16T14:51:02.212Z,35.45
2022-08-16T14:53:32.651Z,33.24
2022-08-16T14:56:00.250Z,33.72
2022-08-16T14:58:34.963Z,32.02
2022-08-16T15:01:05.601Z,28.92
2022-08-16T15:03:33.023Z,26.58
2022-08-16T15:06:01.825Z,24.22
2022-08-16T15:08:34.131Z,23.78
2022-08-16T15:11:04.027Z,29.42
2022-08-16T15:13:30.997Z,29.99
2022-08-16T15:16:02.521Z,28.45
2022-08-16T15:18:31.770Z,30.71
2022-08-16T15:21:00.792Z,32.15
2022-08-16T15:23:28.567Z,33.44
2022-08-16T15:26:02.959Z,33.47
2022-08-16T15:28:32.851Z,34.35
2022-08-16T15:31:06.254Z,33.36
2022-08-16T15:33:35.741Z,32.40
2022-08-16T15:36:07.865Z,32.57
2022-08-16T15:39:03.828Z,30.46
2022-08-16T15:41:42.486Z,29.34
2022-08-16T15:44:13.666Z,27.93
2022-08-16T15:46:55.285Z,26.70
2022-08-16T15:49:25.231Z,27.16
2022-08-16T15:52:31.955Z,26.92
2022-08-16T15:55:13.259Z,25.92
2022-08-16T15:57:51.465Z,27.06
2022-08-16T16:00:20.879Z,25.99
2022-08-16T16:02:49.551Z,26.19
2022-08-16T16:05:17.221Z,25.08
2022-08-16T16:07:56.168Z,24.18
2022-08-16T16:10:28.388Z,22.66
2022-08-16T16:12:58.773Z,24.40
2022-08-16T16:15:32.005Z,23.70
2022-08-16T16:17:59.094Z,25.03
2022-08-16T16:20:32.949Z,25.30
2022-08-16T16:23:10.381Z,24.48
2022-08-16T16:25:39.974Z,23.99
2022-08-16T16:29:06.732Z,24.97
2022-08-16T16:31:01.527Z,24.33
2022-08-16T16:33:29.749Z,24.57
2022-08-16T16:36:00.318Z,26.73
2022-08-16T16:38:30.998Z,26.23
2022-08-16T16:41:09.437Z,25.50
2022-08-16T16:43:40.480Z,25.79
2022-08-16T16:46:39.275Z,27.53
2022-08-16T16:48:56.266Z,26.19
2022-08-16T16:51:28.037Z,29.43
2022-08-16T16:53:57.180Z,27.83
2022-08-16T16:56:31.231Z,31.52
2022-08-16T16:59:07.819Z,30.05
2022-08-16T17:01:56.757Z,28.79
2022-08-16T17:04:31.375Z,27.90
2022-08-16T17:06:59.589Z,27.67
2022-08-16T17:09:26.527Z,29.35
2022-08-16T17:11:55.607Z,30.48
2022-08-16T17:14:33.019Z,29.64
2022-08-16T17:17:08.512Z,29.79
2022-08-16T17:19:41.210Z,31.08
2022-08-16T17:22:15.444Z,30.72
2022-08-16T17:24:50.610Z,30.56
2022-08-16T17:27:33.050Z,29.60
2022-08-16T17:30:16.456Z,28.26
2022-08-16T17:32:50.313Z,29.86
2022-08-16T17:35:21.981Z,27.62
2022-08-16T17:37:51.762Z,28.53
2022-08-16T17:40:25.751Z,29.05
2022-08-16T17:43:10.359Z,29.14
2022-08-16T17:45:39.374Z,28.99
2022-08-16T17:48:06.937Z,28.95
2022-08-16T17:50:34.003Z,29.08
2022-08-16T17:53:03.138Z,31.31
2022-08-16T17:55:33.747Z,32.66
2022-08-16T17:58:00.704Z,32.65
2022-08-16T18:00:37.771Z,35.17
2022-08-16T18:03:06.306Z,36.49
2022-08-16T18:05:33.316Z,37.92
2022-08-16T18:08:00.230Z,37.08
2022-08-16T18:10:32.778Z,37.16
2022-08-16T18:13:01.234Z,37.04
2022-08-16T18:15:28.516Z,36.94
2022-08-16T18:17:55.462Z,37.09
2022-08-16T18:20:42.415Z,38.92
2022-08-16T18:23:18.693Z,39.17
2022-08-16T18:25:52.236Z,39.79
2022-08-16T18:28:19.772Z,40.18
2022-08-16T18:30:51.449Z,41.79
2022-08-16T18:33:21.438Z,42.37
2022-08-16T18:35:48.400Z,44.52
2022-08-16T18:38:15.381Z,43.55
2022-08-16T18:40:42.713Z,43.61
2022-08-16T18:43:13.401Z,43.31
2022-08-16T18:45:42.286Z,43.53
2022-08-16T18:48:10.301Z,46.63
2022-08-16T18:50:59.680Z,46.61
2022-08-16T18:53:28.070Z,46.49
2022-08-16T18:55:57.320Z,47.26
2022-08-16T18:58:24.949Z,47.33
2022-08-16T19:00:56.545Z,48.83
2022-08-16T19:03:27.367Z,47.94
2022-08-16T19:06:07.192Z,47.73
2022-08-16T19:08:38.988Z,47.94
2022-08-16T19:11:09.087Z,50.09
2022-08-16T19:13:36.486Z,51.06
2022-08-16T19:16:04.399Z,50.44
2022-08-16T19:18:36.922Z,48.40
2022-08-16T19:21:05.667Z,49.72
2022-08-16T19:23:35.842Z,47.69
2022-08-16T19:26:24.615Z,49.03
2022-08-16T19:29:00.107Z,46.34
2022-08-16T19:31:32.865Z,47.80
2022-08-16T19:34:00.706Z,49.36
2022-08-16T19:36:35.453Z,48.09
2022-08-16T19:39:09.051Z,48.89
2022-08-16T19:41:38.449Z,50.68
2022-08-16T19:44:06.112Z,50.15
2022-08-16T19:46:33.286Z,50.04
2022-08-16T19:49:00.362Z,50.06
2022-08-16T19:51:27.765Z,50.44
2022-08-16T19:53:54.678Z,50.10
2022-08-16T19:56:23.896Z,50.55
2022-08-16T19:59:17.522Z,50.00
2022-08-16T20:01:42.043Z,51.12
2022-08-16T20:04:12.595Z,49.55
2022-08-16T20:06:40.859Z,50.63
2022-08-16T20:09:08.108Z,49.11
2022-08-16T20:11:37.349Z,48.51
2022-08-16T20:14:04.373Z,48.76
2022-08-16T20:16:31.320Z,49.63
2022-08-16T20:18:58.260Z,50.41
2022-08-16T20:21:25.610Z,45.83
2022-08-16T20:23:55.952Z,45.20
2022-08-16T20:26:31.930Z,44.77
2022-08-16T20:28:58.853Z,42.93
2022-08-16T20:31:25.920Z,44.16
2022-08-16T20:33:53.584Z,42.38
2022-08-16T20:36:20.573Z,42.23
2022-08-16T20:38:48.585Z,41.39
2022-08-16T20:41:16.743Z,41.03
2022-08-16T20:43:45.510Z,43.04
2022-08-16T20:46:13.101Z,40.81
2022-08-16T20:48:40.226Z,40.52
2022-08-16T20:51:10.710Z,39.40
2022-08-16T20:53:39.335Z,39.02
2022-08-16T20:56:06.830Z,39.97
2022-08-16T20:58:33.781Z,39.42
2022-08-16T21:01:01.280Z,38.41
2022-08-16T21:03:28.409Z,37.56
2022-08-16T21:05:59.807Z,38.56
2022-08-16T21:08:52.509Z,38.15
2022-08-16T21:11:13.658Z,37.66
2022-08-16T21:13:42.916Z,37.58
2022-08-16T21:16:10.763Z,37.45
2022-08-16T21:18:37.690Z,37.46
2022-08-16T21:21:04.699Z,37.54
2022-08-16T21:23:31.666Z,37.44
2022-08-16T21:25:59.787Z,37.75
2022-08-16T21:28:39.381Z,37.10
2022-08-16T21:31:11.115Z,37.52
2022-08-16T21:33:38.117Z,37.56
2022-08-16T21:36:06.339Z,36.89
2022-08-16T21:38:33.342Z,37.77
2022-08-16T21:41:01.682Z,36.64
2022-08-16T21:43:32.330Z,37.15
2022-08-16T21:46:03.867Z,37.07
2022-08-16T21:48:34.119Z,37.98
2022-08-16T21:51:14.401Z,37.08
2022-08-16T21:53:43.106Z,37.37
2022-08-16T21:56:16.631Z,36.76
2022-08-16T21:58:44.134Z,37.23
2022-08-16T22:01:11.051Z,37.83
2022-08-16T22:03:37.983Z,35.32
2022-08-16T22:06:13.534Z,36.61
2022-08-16T22:08:49.549Z,35.99
2022-08-16T22:11:22.347Z,34.70
2022-08-16T22:13:57.357Z,34.86
2022-08-16T22:16:30.049Z,35.78
2022-08-16T22:18:57.074Z,36.00
2022-08-16T22:21:24.219Z,35.97
2022-08-16T22:23:57.153Z,36.27
2022-08-16T22:26:29.697Z,36.62
2022-08-16T22:28:59.712Z,36.55
2022-08-16T22:31:27.014Z,36.24
2022-08-16T22:33:53.983Z,37.88
2022-08-16T22:36:20.931Z,38.90
2022-08-16T22:38:56.314Z,36.58
2022-08-16T22:41:24.843Z,37.32
2022-08-16T22:43:52.256Z,36.73
2022-08-16T22:46:19.773Z,35.50
2022-08-16T22:48:50.685Z,35.66
2022-08-16T22:51:19.685Z,36.02
2022-08-16T22:53:46.702Z,35.78
2022-08-16T22:56:13.774Z,36.60
2022-08-16T22:58:40.736Z,36.85
2022-08-16T23:01:09.918Z,36.10
2022-08-16T23:03:37.440Z,36.36
2022-08-16T23:06:05.721Z,35.91
2022-08-16T23:08:39.031Z,35.86
2022-08-16T23:11:09.240Z,35.45
2022-08-16T23:13:36.653Z,35.52
2022-08-16T23:16:10.993Z,35.12
2022-08-16T23:18:39.364Z,35.23
2022-08-16T23:21:09.531Z,35.91
2022-08-16T23:23:37.587Z,36.00
2022-08-16T23:26:36.555Z,35.99
2022-08-16T23:28:52.502Z,35.72
2022-08-16T23:31:19.452Z,35.91
2022-08-16T23:33:46.852Z,36.61
2022-08-16T23:36:13.772Z,36.40
2022-08-16T23:38:41.453Z,35.83
2022-08-16T23:41:11.666Z,36.02
2022-08-16T23:43:43.556Z,35.78
2022-08-16T23:46:15.693Z,36.23
2022-08-16T23:49:44.999Z,36.51
2022-08-16T23:51:30.589Z,36.26
2022-08-16T23:53:57.544Z,36.27
2022-08-16T23:56:25.914Z,35.96
2022-08-16T23:58:58.301Z,35.91
